sensor_id;sensor_type;location;lat;lon;timestamp;temperature;humidity
6863;DHT22;3470;48.738;9.616;2022-07-10T00:01:56;16.10;99.90
6863;DHT22;3470;48.738;9.616;2022-07-10T00:04:22;16.10;99.90
6863;DHT22;3470;48.738;9.616;2022-07-10T00:06:48;16.10;99.90
6863;DHT22;3470;48.738;9.616;2022-07-10T00:09:14;16.10;99.90
6863;DHT22;3470;48.738;9.616;2022-07-10T00:11:40;16.10;99.90
6863;DHT22;3470;48.738;9.616;2022-07-10T00:14:06;16.10;99.90
6863;DHT22;3470;48.738;9.616;2022-07-10T00:16:31;16.10;99.90
6863;DHT22;3470;48.738;9.616;2022-07-10T00:18:57;16.00;99.90
6863;DHT22;3470;48.738;9.616;2022-07-10T00:21:22;16.10;99.90
6863;DHT22;3470;48.738;9.616;2022-07-10T00:23:48;16.10;99.90
6863;DHT22;3470;48.738;9.616;2022-07-10T00:26:14;16.00;99.90
6863;DHT22;3470;48.738;9.616;2022-07-10T00:28:39;16.00;99.90
6863;DHT22;3470;48.738;9.616;2022-07-10T00:31:05;16.00;99.90
6863;DHT22;3470;48.738;9.616;2022-07-10T00:33:31;15.90;99.90
6863;DHT22;3470;48.738;9.616;2022-07-10T00:35:58;15.90;99.90
6863;DHT22;3470;48.738;9.616;2022-07-10T00:38:24;15.90;99.90
6863;DHT22;3470;48.738;9.616;2022-07-10T00:40:49;15.90;99.90
6863;DHT22;3470;48.738;9.616;2022-07-10T00:43:15;15.90;99.90
6863;DHT22;3470;48.738;9.616;2022-07-10T00:45:41;15.90;99.90
6863;DHT22;3470;48.738;9.616;2022-07-10T00:48:07;15.80;99.90
6863;DHT22;3470;48.738;9.616;2022-07-10T00:50:34;15.90;99.90
6863;DHT22;3470;48.738;9.616;2022-07-10T00:53:01;15.90;99.90
6863;DHT22;3470;48.738;9.616;2022-07-10T00:55:28;15.90;99.90
6863;DHT22;3470;48.738;9.616;2022-07-10T00:57:55;15.90;99.90
6863;DHT22;3470;48.738;9.616;2022-07-10T01:00:21;16.00;99.90
6863;DHT22;3470;48.738;9.616;2022-07-10T01:02:47;16.00;99.90
6863;DHT22;3470;48.738;9.616;2022-07-10T01:05:13;16.00;99.90
6863;DHT22;3470;48.738;9.616;2022-07-10T01:07:38;15.90;99.90
6863;DHT22;3470;48.738;9.616;2022-07-10T01:10:04;15.90;99.90
6863;DHT22;3470;48.738;9.616;2022-07-10T01:12:30;15.90;99.90
6863;DHT22;3470;48.738;9.616;2022-07-10T01:14:56;15.90;99.90
6863;DHT22;3470;48.738;9.616;2022-07-10T01:17:24;15.90;99.90
6863;DHT22;3470;48.738;9.616;2022-07-10T01:19:50;15.80;99.90
6863;DHT22;3470;48.738;9.616;2022-07-10T01:22:16;15.70;99.90
6863;DHT22;3470;48.738;9.616;2022-07-10T01:24:42;15.70;99.90
6863;DHT22;3470;48.738;9.616;2022-07-10T01:27:07;15.70;99.90
6863;DHT22;3470;48.738;9.616;2022-07-10T01:29:34;15.70;99.90
6863;DHT22;3470;48.738;9.616;2022-07-10T01:32:01;15.70;99.90
6863;DHT22;3470;48.738;9.616;2022-07-10T01:34:27;15.60;99.90
6863;DHT22;3470;48.738;9.616;2022-07-10T01:36:53;15.50;99.90
6863;DHT22;3470;48.738;9.616;2022-07-10T01:39:19;15.50;99.90
6863;DHT22;3470;48.738;9.616;2022-07-10T01:41:45;15.50;99.90
6863;DHT22;3470;48.738;9.616;2022-07-10T01:44:10;15.40;99.90
6863;DHT22;3470;48.738;9.616;2022-07-10T01:46:45;15.40;99.90
6863;DHT22;3470;48.738;9.616;2022-07-10T01:49:11;15.40;99.90
6863;DHT22;3470;48.738;9.616;2022-07-10T01:51:37;15.40;99.90
6863;DHT22;3470;48.738;9.616;2022-07-10T01:54:03;15.40;99.90
6863;DHT22;3470;48.738;9.616;2022-07-10T01:56:28;15.40;99.90
6863;DHT22;3470;48.738;9.616;2022-07-10T01:58:54;15.40;99.90
6863;DHT22;3470;48.738;9.616;2022-07-10T02:01:19;15.30;99.90
6863;DHT22;3470;48.738;9.616;2022-07-10T02:03:45;15.20;99.90
6863;DHT22;3470;48.738;9.616;2022-07-10T02:06:29;15.10;99.90
6863;DHT22;3470;48.738;9.616;2022-07-10T02:08:55;15.10;99.90
6863;DHT22;3470;48.738;9.616;2022-07-10T02:11:21;15.00;99.90
6863;DHT22;3470;48.738;9.616;2022-07-10T02:13:46;14.90;99.90
6863;DHT22;3470;48.738;9.616;2022-07-10T02:16:12;14.80;99.90
6863;DHT22;3470;48.738;9.616;2022-07-10T02:18:38;14.80;99.90
6863;DHT22;3470;48.738;9.616;2022-07-10T02:21:05;14.80;99.90
6863;DHT22;3470;48.738;9.616;2022-07-10T02:23:30;14.90;99.90
6863;DHT22;3470;48.738;9.616;2022-07-10T02:25:56;14.90;99.90
6863;DHT22;3470;48.738;9.616;2022-07-10T02:28:22;14.90;99.90
6863;DHT22;3470;48.738;9.616;2022-07-10T02:30:47;14.90;99.90
6863;DHT22;3470;48.738;9.616;2022-07-10T02:33:13;14.90;99.90
6863;DHT22;3470;48.738;9.616;2022-07-10T02:35:38;14.90;99.90
6863;DHT22;3470;48.738;9.616;2022-07-10T02:38:04;14.90;99.90
6863;DHT22;3470;48.738;9.616;2022-07-10T02:40:29;14.90;99.90
6863;DHT22;3470;48.738;9.616;2022-07-10T02:42:55;14.90;99.90
6863;DHT22;3470;48.738;9.616;2022-07-10T02:45:21;15.00;99.90
6863;DHT22;3470;48.738;9.616;2022-07-10T02:47:46;15.00;99.90
6863;DHT22;3470;48.738;9.616;2022-07-10T02:50:12;15.10;99.90
6863;DHT22;3470;48.738;9.616;2022-07-10T02:52:37;15.10;99.90
6863;DHT22;3470;48.738;9.616;2022-07-10T02:55:03;15.10;99.90
6863;DHT22;3470;48.738;9.616;2022-07-10T02:57:29;15.10;99.90
6863;DHT22;3470;48.738;9.616;2022-07-10T02:59:54;15.20;99.90
6863;DHT22;3470;48.738;9.616;2022-07-10T03:02:20;15.20;99.90
6863;DHT22;3470;48.738;9.616;2022-07-10T03:04:46;15.20;99.90
6863;DHT22;3470;48.738;9.616;2022-07-10T03:07:11;15.20;99.90
6863;DHT22;3470;48.738;9.616;2022-07-10T03:09:37;15.20;99.90
6863;DHT22;3470;48.738;9.616;2022-07-10T03:12:02;15.10;99.90
6863;DHT22;3470;48.738;9.616;2022-07-10T03:14:28;15.10;99.90
6863;DHT22;3470;48.738;9.616;2022-07-10T03:16:54;15.00;99.90
6863;DHT22;3470;48.738;9.616;2022-07-10T03:19:19;14.90;99.90
6863;DHT22;3470;48.738;9.616;2022-07-10T03:21:45;14.90;99.90
6863;DHT22;3470;48.738;9.616;2022-07-10T03:24:11;14.90;99.90
6863;DHT22;3470;48.738;9.616;2022-07-10T03:26:37;14.90;99.90
6863;DHT22;3470;48.738;9.616;2022-07-10T03:29:02;14.90;99.90
6863;DHT22;3470;48.738;9.616;2022-07-10T03:31:28;14.90;99.90
6863;DHT22;3470;48.738;9.616;2022-07-10T03:33:54;14.80;99.90
6863;DHT22;3470;48.738;9.616;2022-07-10T03:36:19;14.80;99.90
6863;DHT22;3470;48.738;9.616;2022-07-10T03:38:45;14.80;99.90
6863;DHT22;3470;48.738;9.616;2022-07-10T03:41:12;14.80;99.90
6863;DHT22;3470;48.738;9.616;2022-07-10T03:43:38;14.70;99.90
6863;DHT22;3470;48.738;9.616;2022-07-10T03:46:04;14.60;99.90
6863;DHT22;3470;48.738;9.616;2022-07-10T03:48:29;14.50;99.90
6863;DHT22;3470;48.738;9.616;2022-07-10T03:50:55;14.40;99.90
6863;DHT22;3470;48.738;9.616;2022-07-10T03:53:21;14.40;99.90
6863;DHT22;3470;48.738;9.616;2022-07-10T03:55:46;14.30;99.90
6863;DHT22;3470;48.738;9.616;2022-07-10T03:58:12;14.30;99.90
6863;DHT22;3470;48.738;9.616;2022-07-10T04:00:38;14.20;99.90
6863;DHT22;3470;48.738;9.616;2022-07-10T04:03:05;14.20;99.90
6863;DHT22;3470;48.738;9.616;2022-07-10T04:05:32;14.20;99.90
6863;DHT22;3470;48.738;9.616;2022-07-10T04:07:58;14.10;99.90
6863;DHT22;3470;48.738;9.616;2022-07-10T04:10:25;14.10;99.90
6863;DHT22;3470;48.738;9.616;2022-07-10T04:12:51;14.20;99.90
6863;DHT22;3470;48.738;9.616;2022-07-10T04:15:17;14.20;99.90
6863;DHT22;3470;48.738;9.616;2022-07-10T04:17:43;14.10;99.90
6863;DHT22;3470;48.738;9.616;2022-07-10T04:20:09;14.10;99.90
6863;DHT22;3470;48.738;9.616;2022-07-10T04:22:35;14.10;99.90
6863;DHT22;3470;48.738;9.616;2022-07-10T04:25:01;14.10;99.90
6863;DHT22;3470;48.738;9.616;2022-07-10T04:27:27;14.20;99.90
6863;DHT22;3470;48.738;9.616;2022-07-10T04:29:53;14.30;99.90
6863;DHT22;3470;48.738;9.616;2022-07-10T04:32:18;14.30;99.90
6863;DHT22;3470;48.738;9.616;2022-07-10T04:34:44;14.30;99.90
6863;DHT22;3470;48.738;9.616;2022-07-10T04:37:10;14.30;99.90
6863;DHT22;3470;48.738;9.616;2022-07-10T04:39:36;14.30;99.90
6863;DHT22;3470;48.738;9.616;2022-07-10T04:42:08;14.30;99.90
6863;DHT22;3470;48.738;9.616;2022-07-10T04:44:35;14.30;99.90
6863;DHT22;3470;48.738;9.616;2022-07-10T04:47:02;14.40;99.90
6863;DHT22;3470;48.738;9.616;2022-07-10T04:49:27;14.50;99.90
6863;DHT22;3470;48.738;9.616;2022-07-10T04:51:54;14.50;99.90
6863;DHT22;3470;48.738;9.616;2022-07-10T04:54:21;14.50;99.90
6863;DHT22;3470;48.738;9.616;2022-07-10T04:56:47;14.50;99.90
6863;DHT22;3470;48.738;9.616;2022-07-10T04:59:13;14.50;99.90
6863;DHT22;3470;48.738;9.616;2022-07-10T05:01:38;14.50;99.90
6863;DHT22;3470;48.738;9.616;2022-07-10T05:04:04;14.50;99.90
6863;DHT22;3470;48.738;9.616;2022-07-10T05:06:30;14.50;99.90
6863;DHT22;3470;48.738;9.616;2022-07-10T05:08:56;14.60;99.90
6863;DHT22;3470;48.738;9.616;2022-07-10T05:11:22;14.70;99.90
6863;DHT22;3470;48.738;9.616;2022-07-10T05:13:48;14.80;99.90
6863;DHT22;3470;48.738;9.616;2022-07-10T05:16:15;15.00;99.90
6863;DHT22;3470;48.738;9.616;2022-07-10T05:18:40;15.10;99.90
6863;DHT22;3470;48.738;9.616;2022-07-10T05:21:07;15.40;99.90
6863;DHT22;3470;48.738;9.616;2022-07-10T05:23:33;15.70;99.90
6863;DHT22;3470;48.738;9.616;2022-07-10T05:25:59;15.80;99.90
6863;DHT22;3470;48.738;9.616;2022-07-10T05:28:24;16.00;99.90
6863;DHT22;3470;48.738;9.616;2022-07-10T05:30:51;16.10;99.90
6863;DHT22;3470;48.738;9.616;2022-07-10T05:33:16;16.10;99.90
6863;DHT22;3470;48.738;9.616;2022-07-10T05:35:42;16.10;99.90
6863;DHT22;3470;48.738;9.616;2022-07-10T05:38:08;16.00;99.90
6863;DHT22;3470;48.738;9.616;2022-07-10T05:40:33;16.00;99.90
6863;DHT22;3470;48.738;9.616;2022-07-10T05:42:59;16.20;99.90
6863;DHT22;3470;48.738;9.616;2022-07-10T05:45:25;16.40;99.90
6863;DHT22;3470;48.738;9.616;2022-07-10T05:47:51;16.30;99.90
6863;DHT22;3470;48.738;9.616;2022-07-10T05:50:17;16.20;99.90
6863;DHT22;3470;48.738;9.616;2022-07-10T05:52:42;16.20;99.90
6863;DHT22;3470;48.738;9.616;2022-07-10T05:55:08;16.20;99.90
6863;DHT22;3470;48.738;9.616;2022-07-10T05:57:34;16.20;99.90
6863;DHT22;3470;48.738;9.616;2022-07-10T06:00:01;16.30;99.90
6863;DHT22;3470;48.738;9.616;2022-07-10T06:02:26;16.30;99.90
6863;DHT22;3470;48.738;9.616;2022-07-10T06:04:52;16.30;99.90
6863;DHT22;3470;48.738;9.616;2022-07-10T06:07:18;16.30;99.90
6863;DHT22;3470;48.738;9.616;2022-07-10T06:09:44;16.40;99.90
6863;DHT22;3470;48.738;9.616;2022-07-10T06:12:10;16.40;99.90
6863;DHT22;3470;48.738;9.616;2022-07-10T06:14:35;16.40;99.90
6863;DHT22;3470;48.738;9.616;2022-07-10T06:17:01;16.40;99.90
6863;DHT22;3470;48.738;9.616;2022-07-10T06:19:27;16.40;99.90
6863;DHT22;3470;48.738;9.616;2022-07-10T06:21:53;16.50;99.90
6863;DHT22;3470;48.738;9.616;2022-07-10T06:24:38;16.70;99.90
6863;DHT22;3470;48.738;9.616;2022-07-10T06:27:04;16.80;99.90
6863;DHT22;3470;48.738;9.616;2022-07-10T06:29:30;16.80;99.90
6863;DHT22;3470;48.738;9.616;2022-07-10T06:31:56;16.90;99.90
6863;DHT22;3470;48.738;9.616;2022-07-10T06:34:21;17.20;99.90
6863;DHT22;3470;48.738;9.616;2022-07-10T06:36:47;17.60;99.50
6863;DHT22;3470;48.738;9.616;2022-07-10T06:39:13;17.90;98.60
6863;DHT22;3470;48.738;9.616;2022-07-10T06:41:38;18.20;98.30
6863;DHT22;3470;48.738;9.616;2022-07-10T06:44:04;18.40;97.60
6863;DHT22;3470;48.738;9.616;2022-07-10T06:46:31;18.40;96.90
6863;DHT22;3470;48.738;9.616;2022-07-10T06:48:58;18.40;96.70
6863;DHT22;3470;48.738;9.616;2022-07-10T06:51:23;18.50;96.70
6863;DHT22;3470;48.738;9.616;2022-07-10T06:53:49;18.30;95.50
6863;DHT22;3470;48.738;9.616;2022-07-10T06:56:15;18.40;95.70
6863;DHT22;3470;48.738;9.616;2022-07-10T06:58:41;18.40;96.60
6863;DHT22;3470;48.738;9.616;2022-07-10T07:01:07;18.20;97.00
6863;DHT22;3470;48.738;9.616;2022-07-10T07:03:33;17.90;97.60
6863;DHT22;3470;48.738;9.616;2022-07-10T07:06:00;17.70;98.30
6863;DHT22;3470;48.738;9.616;2022-07-10T07:08:25;17.50;98.30
6863;DHT22;3470;48.738;9.616;2022-07-10T07:10:51;17.50;98.50
6863;DHT22;3470;48.738;9.616;2022-07-10T07:13:17;17.50;98.90
6863;DHT22;3470;48.738;9.616;2022-07-10T07:15:42;17.50;99.20
6863;DHT22;3470;48.738;9.616;2022-07-10T07:18:14;17.40;98.50
6863;DHT22;3470;48.738;9.616;2022-07-10T07:20:42;17.50;97.50
6863;DHT22;3470;48.738;9.616;2022-07-10T07:23:26;17.80;97.80
6863;DHT22;3470;48.738;9.616;2022-07-10T07:25:52;18.20;97.20
6863;DHT22;3470;48.738;9.616;2022-07-10T07:28:19;18.50;95.80
6863;DHT22;3470;48.738;9.616;2022-07-10T07:30:48;18.80;95.30
6863;DHT22;3470;48.738;9.616;2022-07-10T07:33:13;19.10;95.00
6863;DHT22;3470;48.738;9.616;2022-07-10T07:35:39;19.30;94.40
6863;DHT22;3470;48.738;9.616;2022-07-10T07:38:05;19.10;94.60
6863;DHT22;3470;48.738;9.616;2022-07-10T07:40:32;19.10;94.00
6863;DHT22;3470;48.738;9.616;2022-07-10T07:42:58;19.10;93.30
6863;DHT22;3470;48.738;9.616;2022-07-10T07:45:24;19.10;93.50
6863;DHT22;3470;48.738;9.616;2022-07-10T07:47:55;19.50;93.90
6863;DHT22;3470;48.738;9.616;2022-07-10T07:50:23;19.60;92.80
6863;DHT22;3470;48.738;9.616;2022-07-10T07:52:51;19.70;92.60
6863;DHT22;3470;48.738;9.616;2022-07-10T07:55:18;19.70;91.30
6863;DHT22;3470;48.738;9.616;2022-07-10T07:57:44;19.60;90.70
6863;DHT22;3470;48.738;9.616;2022-07-10T08:00:12;19.50;91.50
6863;DHT22;3470;48.738;9.616;2022-07-10T08:02:38;19.70;90.80
6863;DHT22;3470;48.738;9.616;2022-07-10T08:05:04;19.50;90.80
6863;DHT22;3470;48.738;9.616;2022-07-10T08:07:42;19.30;90.60
6863;DHT22;3470;48.738;9.616;2022-07-10T08:10:10;19.10;90.60
6863;DHT22;3470;48.738;9.616;2022-07-10T08:12:36;19.40;90.10
6863;DHT22;3470;48.738;9.616;2022-07-10T08:15:02;20.50;89.30
6863;DHT22;3470;48.738;9.616;2022-07-10T08:17:28;21.30;86.90
6863;DHT22;3470;48.738;9.616;2022-07-10T08:19:54;22.50;83.10
6863;DHT22;3470;48.738;9.616;2022-07-10T08:22:19;23.10;79.70
6863;DHT22;3470;48.738;9.616;2022-07-10T08:24:45;22.90;77.60
6863;DHT22;3470;48.738;9.616;2022-07-10T08:27:11;22.20;79.50
6863;DHT22;3470;48.738;9.616;2022-07-10T08:29:38;21.80;81.00
6863;DHT22;3470;48.738;9.616;2022-07-10T08:32:03;21.00;82.50
6863;DHT22;3470;48.738;9.616;2022-07-10T08:34:30;20.40;83.70
6863;DHT22;3470;48.738;9.616;2022-07-10T08:36:55;21.40;81.60
6863;DHT22;3470;48.738;9.616;2022-07-10T08:39:21;22.90;77.70
6863;DHT22;3470;48.738;9.616;2022-07-10T08:41:47;23.20;75.10
6863;DHT22;3470;48.738;9.616;2022-07-10T08:44:16;23.30;75.10
6863;DHT22;3470;48.738;9.616;2022-07-10T08:46:43;23.60;73.70
6863;DHT22;3470;48.738;9.616;2022-07-10T08:49:09;22.70;74.60
6863;DHT22;3470;48.738;9.616;2022-07-10T08:51:47;22.40;76.90
6863;DHT22;3470;48.738;9.616;2022-07-10T08:54:14;22.00;77.30
6863;DHT22;3470;48.738;9.616;2022-07-10T08:56:41;23.10;76.50
6863;DHT22;3470;48.738;9.616;2022-07-10T08:59:07;24.40;72.80
6863;DHT22;3470;48.738;9.616;2022-07-10T09:01:33;25.30;71.70
6863;DHT22;3470;48.738;9.616;2022-07-10T09:03:59;25.70;68.40
6863;DHT22;3470;48.738;9.616;2022-07-10T09:06:29;26.10;67.60
6863;DHT22;3470;48.738;9.616;2022-07-10T09:09:12;25.70;66.90
6863;DHT22;3470;48.738;9.616;2022-07-10T09:11:39;26.80;66.50
6863;DHT22;3470;48.738;9.616;2022-07-10T09:14:15;28.00;62.40
6863;DHT22;3470;48.738;9.616;2022-07-10T09:16:43;29.10;60.00
6863;DHT22;3470;48.738;9.616;2022-07-10T09:19:17;29.10;59.10
6863;DHT22;3470;48.738;9.616;2022-07-10T09:21:44;28.70;60.10
6863;DHT22;3470;48.738;9.616;2022-07-10T09:24:10;29.30;59.10
6863;DHT22;3470;48.738;9.616;2022-07-10T09:26:36;27.40;59.50
6863;DHT22;3470;48.738;9.616;2022-07-10T09:29:10;25.70;61.90
6863;DHT22;3470;48.738;9.616;2022-07-10T09:31:52;24.90;63.80
6863;DHT22;3470;48.738;9.616;2022-07-10T09:34:40;24.40;64.80
6863;DHT22;3470;48.738;9.616;2022-07-10T09:37:25;24.40;65.30
6863;DHT22;3470;48.738;9.616;2022-07-10T09:42:37;22.60;69.90
6863;DHT22;3470;48.738;9.616;2022-07-10T09:50:22;22.40;72.00
6863;DHT22;3470;48.738;9.616;2022-07-10T09:52:56;23.40;71.00
6863;DHT22;3470;48.738;9.616;2022-07-10T09:55:25;24.60;65.70
6863;DHT22;3470;48.738;9.616;2022-07-10T09:58:09;24.20;65.90
6863;DHT22;3470;48.738;9.616;2022-07-10T10:00:37;23.20;68.00
6863;DHT22;3470;48.738;9.616;2022-07-10T10:03:05;22.20;70.10
6863;DHT22;3470;48.738;9.616;2022-07-10T10:05:45;21.70;71.00
6863;DHT22;3470;48.738;9.616;2022-07-10T10:08:25;22.20;70.10
6863;DHT22;3470;48.738;9.616;2022-07-10T10:10:51;23.90;65.00
6863;DHT22;3470;48.738;9.616;2022-07-10T10:13:22;23.50;64.20
6863;DHT22;3470;48.738;9.616;2022-07-10T10:15:50;23.00;67.20
6863;DHT22;3470;48.738;9.616;2022-07-10T10:18:23;22.20;68.40
6863;DHT22;3470;48.738;9.616;2022-07-10T10:20:51;21.80;70.60
6863;DHT22;3470;48.738;9.616;2022-07-10T10:23:19;21.60;70.70
6863;DHT22;3470;48.738;9.616;2022-07-10T10:25:49;21.60;70.40
6863;DHT22;3470;48.738;9.616;2022-07-10T10:28:17;21.40;70.60
6863;DHT22;3470;48.738;9.616;2022-07-10T10:30:44;21.50;71.70
6863;DHT22;3470;48.738;9.616;2022-07-10T10:36:00;22.50;69.20
6863;DHT22;3470;48.738;9.616;2022-07-10T10:41:25;22.60;66.10
6863;DHT22;3470;48.738;9.616;2022-07-10T10:49:20;24.20;63.00
6863;DHT22;3470;48.738;9.616;2022-07-10T10:52:02;24.00;64.20
6863;DHT22;3470;48.738;9.616;2022-07-10T10:55:14;23.50;65.40
6863;DHT22;3470;48.738;9.616;2022-07-10T10:57:16;22.90;65.10
6863;DHT22;3470;48.738;9.616;2022-07-10T10:59:50;21.90;66.80
6863;DHT22;3470;48.738;9.616;2022-07-10T11:02:25;23.50;66.80
6863;DHT22;3470;48.738;9.616;2022-07-10T11:04:51;25.00;63.10
6863;DHT22;3470;48.738;9.616;2022-07-10T11:15:26;25.70;58.10
6863;DHT22;3470;48.738;9.616;2022-07-10T11:17:52;27.10;57.50
6863;DHT22;3470;48.738;9.616;2022-07-10T11:20:18;28.60;55.50
6863;DHT22;3470;48.738;9.616;2022-07-10T11:22:57;29.20;54.20
6863;DHT22;3470;48.738;9.616;2022-07-10T11:25:37;27.40;55.70
6863;DHT22;3470;48.738;9.616;2022-07-10T11:28:09;25.50;59.30
6863;DHT22;3470;48.738;9.616;2022-07-10T11:33:09;23.70;62.80
6863;DHT22;3470;48.738;9.616;2022-07-10T11:35:35;23.60;62.70
6863;DHT22;3470;48.738;9.616;2022-07-10T11:38:01;25.30;59.10
6863;DHT22;3470;48.738;9.616;2022-07-10T11:40:26;26.90;57.40
6863;DHT22;3470;48.738;9.616;2022-07-10T11:42:54;26.50;56.40
6863;DHT22;3470;48.738;9.616;2022-07-10T11:47:49;23.40;60.50
6863;DHT22;3470;48.738;9.616;2022-07-10T11:50:14;22.70;62.20
6863;DHT22;3470;48.738;9.616;2022-07-10T11:52:40;23.80;61.90
6863;DHT22;3470;48.738;9.616;2022-07-10T11:55:16;26.00;58.50
6863;DHT22;3470;48.738;9.616;2022-07-10T11:57:42;27.90;55.00
6863;DHT22;3470;48.738;9.616;2022-07-10T12:00:26;29.80;54.10
6863;DHT22;3470;48.738;9.616;2022-07-10T12:02:54;30.20;51.30
6863;DHT22;3470;48.738;9.616;2022-07-10T12:05:36;29.00;52.90
6863;DHT22;3470;48.738;9.616;2022-07-10T12:08:03;27.40;54.90
6863;DHT22;3470;48.738;9.616;2022-07-10T12:10:31;25.40;57.30
6863;DHT22;3470;48.738;9.616;2022-07-10T12:13:10;26.30;58.50
6863;DHT22;3470;48.738;9.616;2022-07-10T12:15:44;28.30;54.20
6863;DHT22;3470;48.738;9.616;2022-07-10T12:18:20;28.40;53.90
6863;DHT22;3470;48.738;9.616;2022-07-10T12:20:48;27.20;54.60
6863;DHT22;3470;48.738;9.616;2022-07-10T12:23:18;26.80;55.70
6863;DHT22;3470;48.738;9.616;2022-07-10T12:25:45;27.00;55.40
6863;DHT22;3470;48.738;9.616;2022-07-10T12:28:11;26.60;55.80
6863;DHT22;3470;48.738;9.616;2022-07-10T12:30:45;26.00;57.20
6863;DHT22;3470;48.738;9.616;2022-07-10T12:33:12;27.00;56.30
6863;DHT22;3470;48.738;9.616;2022-07-10T12:35:56;28.30;55.00
6863;DHT22;3470;48.738;9.616;2022-07-10T12:38:29;29.60;53.10
6863;DHT22;3470;48.738;9.616;2022-07-10T12:41:09;29.70;52.70
6863;DHT22;3470;48.738;9.616;2022-07-10T12:43:36;30.40;51.20
6863;DHT22;3470;48.738;9.616;2022-07-10T12:46:19;30.30;51.90
6863;DHT22;3470;48.738;9.616;2022-07-10T12:49:02;29.00;51.90
6863;DHT22;3470;48.738;9.616;2022-07-10T12:51:44;26.50;55.20
6863;DHT22;3470;48.738;9.616;2022-07-10T12:54:38;26.10;56.20
6863;DHT22;3470;48.738;9.616;2022-07-10T12:57:05;26.00;57.00
6863;DHT22;3470;48.738;9.616;2022-07-10T12:59:33;25.70;57.50
6863;DHT22;3470;48.738;9.616;2022-07-10T13:02:20;26.90;55.80
6863;DHT22;3470;48.738;9.616;2022-07-10T13:04:57;28.10;53.80
6863;DHT22;3470;48.738;9.616;2022-07-10T13:07:30;28.70;53.20
6863;DHT22;3470;48.738;9.616;2022-07-10T13:09:59;28.00;54.20
6863;DHT22;3470;48.738;9.616;2022-07-10T13:12:25;26.80;55.80
6863;DHT22;3470;48.738;9.616;2022-07-10T13:14:51;26.10;57.40
6863;DHT22;3470;48.738;9.616;2022-07-10T13:17:17;25.80;57.30
6863;DHT22;3470;48.738;9.616;2022-07-10T13:19:42;26.20;57.90
6863;DHT22;3470;48.738;9.616;2022-07-10T13:22:08;27.10;56.10
6863;DHT22;3470;48.738;9.616;2022-07-10T13:24:33;27.70;56.30
6863;DHT22;3470;48.738;9.616;2022-07-10T13:26:59;27.40;54.80
6863;DHT22;3470;48.738;9.616;2022-07-10T13:29:25;27.40;55.10
6863;DHT22;3470;48.738;9.616;2022-07-10T13:31:50;26.70;55.10
6863;DHT22;3470;48.738;9.616;2022-07-10T13:34:16;26.70;55.70
6863;DHT22;3470;48.738;9.616;2022-07-10T13:36:42;26.80;55.40
6863;DHT22;3470;48.738;9.616;2022-07-10T13:39:08;26.80;55.20
6863;DHT22;3470;48.738;9.616;2022-07-10T13:41:34;27.00;56.00
6863;DHT22;3470;48.738;9.616;2022-07-10T13:43:59;26.80;54.90
6863;DHT22;3470;48.738;9.616;2022-07-10T13:46:27;26.80;55.30
6863;DHT22;3470;48.738;9.616;2022-07-10T13:48:52;27.30;56.30
6863;DHT22;3470;48.738;9.616;2022-07-10T13:51:18;27.20;55.10
6863;DHT22;3470;48.738;9.616;2022-07-10T13:53:43;26.90;55.50
6863;DHT22;3470;48.738;9.616;2022-07-10T13:56:09;26.80;55.30
6863;DHT22;3470;48.738;9.616;2022-07-10T13:58:35;26.80;54.20
6863;DHT22;3470;48.738;9.616;2022-07-10T14:01:02;27.00;55.20
6863;DHT22;3470;48.738;9.616;2022-07-10T14:03:29;27.00;55.00
6863;DHT22;3470;48.738;9.616;2022-07-10T14:05:55;27.30;55.20
6863;DHT22;3470;48.738;9.616;2022-07-10T14:08:21;27.10;53.40
6863;DHT22;3470;48.738;9.616;2022-07-10T14:10:47;26.50;53.50
6863;DHT22;3470;48.738;9.616;2022-07-10T14:13:13;26.90;55.00
6863;DHT22;3470;48.738;9.616;2022-07-10T14:15:39;27.00;55.40
6863;DHT22;3470;48.738;9.616;2022-07-10T14:18:06;26.90;54.10
6863;DHT22;3470;48.738;9.616;2022-07-10T14:20:32;27.20;54.80
6863;DHT22;3470;48.738;9.616;2022-07-10T14:23:16;27.60;53.90
6863;DHT22;3470;48.738;9.616;2022-07-10T14:25:42;27.40;53.60
6863;DHT22;3470;48.738;9.616;2022-07-10T14:28:07;26.90;54.90
6863;DHT22;3470;48.738;9.616;2022-07-10T14:30:33;26.30;55.60
6863;DHT22;3470;48.738;9.616;2022-07-10T14:32:59;26.80;55.20
6863;DHT22;3470;48.738;9.616;2022-07-10T14:35:24;26.90;54.50
6863;DHT22;3470;48.738;9.616;2022-07-10T14:37:50;27.00;54.90
6863;DHT22;3470;48.738;9.616;2022-07-10T14:40:15;26.40;54.30
6863;DHT22;3470;48.738;9.616;2022-07-10T14:42:41;25.70;55.20
6863;DHT22;3470;48.738;9.616;2022-07-10T14:45:07;26.10;55.70
6863;DHT22;3470;48.738;9.616;2022-07-10T14:47:33;26.50;55.40
6863;DHT22;3470;48.738;9.616;2022-07-10T14:49:59;26.10;55.80
6863;DHT22;3470;48.738;9.616;2022-07-10T14:52:25;25.50;55.30
6863;DHT22;3470;48.738;9.616;2022-07-10T14:54:53;24.80;56.30
6863;DHT22;3470;48.738;9.616;2022-07-10T14:57:19;23.80;57.20
6863;DHT22;3470;48.738;9.616;2022-07-10T14:59:44;23.30;58.60
6863;DHT22;3470;48.738;9.616;2022-07-10T15:02:10;23.50;57.90
6863;DHT22;3470;48.738;9.616;2022-07-10T15:04:35;23.90;58.40
6863;DHT22;3470;48.738;9.616;2022-07-10T15:07:01;24.60;57.50
6863;DHT22;3470;48.738;9.616;2022-07-10T15:09:27;24.30;57.40
6863;DHT22;3470;48.738;9.616;2022-07-10T15:11:52;24.40;56.80
6863;DHT22;3470;48.738;9.616;2022-07-10T15:14:19;24.60;56.30
6863;DHT22;3470;48.738;9.616;2022-07-10T15:16:45;24.70;56.80
6863;DHT22;3470;48.738;9.616;2022-07-10T15:19:11;25.10;56.20
6863;DHT22;3470;48.738;9.616;2022-07-10T15:21:37;25.50;56.90
6863;DHT22;3470;48.738;9.616;2022-07-10T15:24:03;25.30;55.60
6863;DHT22;3470;48.738;9.616;2022-07-10T15:26:29;25.20;56.50
6863;DHT22;3470;48.738;9.616;2022-07-10T15:28:55;25.30;56.10
6863;DHT22;3470;48.738;9.616;2022-07-10T15:31:21;25.60;56.60
6863;DHT22;3470;48.738;9.616;2022-07-10T15:33:47;25.60;55.70
6863;DHT22;3470;48.738;9.616;2022-07-10T15:36:13;25.90;55.70
6863;DHT22;3470;48.738;9.616;2022-07-10T15:38:39;25.80;55.90
6863;DHT22;3470;48.738;9.616;2022-07-10T15:41:05;25.00;55.30
6863;DHT22;3470;48.738;9.616;2022-07-10T15:43:31;24.40;55.80
6863;DHT22;3470;48.738;9.616;2022-07-10T15:45:57;24.00;56.60
6863;DHT22;3470;48.738;9.616;2022-07-10T15:48:24;23.80;58.20
6863;DHT22;3470;48.738;9.616;2022-07-10T15:50:49;23.70;58.00
6863;DHT22;3470;48.738;9.616;2022-07-10T15:53:15;23.70;58.50
6863;DHT22;3470;48.738;9.616;2022-07-10T15:55:40;23.60;59.00
6863;DHT22;3470;48.738;9.616;2022-07-10T15:58:06;23.40;59.10
6863;DHT22;3470;48.738;9.616;2022-07-10T16:00:32;23.10;58.70
6863;DHT22;3470;48.738;9.616;2022-07-10T16:02:57;22.60;59.30
6863;DHT22;3470;48.738;9.616;2022-07-10T16:05:25;22.30;59.10
6863;DHT22;3470;48.738;9.616;2022-07-10T16:07:51;21.80;61.10
6863;DHT22;3470;48.738;9.616;2022-07-10T16:10:17;21.70;64.80
6863;DHT22;3470;48.738;9.616;2022-07-10T16:12:43;21.50;63.10
6863;DHT22;3470;48.738;9.616;2022-07-10T16:15:09;21.20;61.90
6863;DHT22;3470;48.738;9.616;2022-07-10T16:17:34;21.10;62.60
6863;DHT22;3470;48.738;9.616;2022-07-10T16:20:00;21.00;63.60
6863;DHT22;3470;48.738;9.616;2022-07-10T16:22:25;20.90;63.10
6863;DHT22;3470;48.738;9.616;2022-07-10T16:24:51;20.70;62.60
6863;DHT22;3470;48.738;9.616;2022-07-10T16:27:35;20.40;62.50
6863;DHT22;3470;48.738;9.616;2022-07-10T16:30:01;20.20;63.60
6863;DHT22;3470;48.738;9.616;2022-07-10T16:32:26;20.10;64.00
6863;DHT22;3470;48.738;9.616;2022-07-10T16:34:52;19.90;64.20
6863;DHT22;3470;48.738;9.616;2022-07-10T16:37:18;19.80;64.70